sensor_id;sensor_type;location;lat;lon;timestamp;P1;durP1;ratioP1;P2;durP2;ratioP2
3718;SDS011;1875;52.492;6.860;2023-06-10T00:01:09;10.70;;;5.50;;
3718;SDS011;1875;52.492;6.860;2023-06-10T00:03:36;13.13;;;4.97;;
3718;SDS011;1875;52.492;6.860;2023-06-10T00:06:05;9.03;;;4.40;;
3718;SDS011;1875;52.492;6.860;2023-06-10T00:08:33;7.10;;;4.03;;
3718;SDS011;1875;52.492;6.860;2023-06-10T00:11:02;10.50;;;4.23;;
3718;SDS011;1875;52.492;6.860;2023-06-10T00:13:30;10.90;;;4.47;;
3718;SDS011;1875;52.492;6.860;2023-06-10T00:15:58;9.43;;;4.20;;
3718;SDS011;1875;52.492;6.860;2023-06-10T00:18:25;7.93;;;4.27;;
3718;SDS011;1875;52.492;6.860;2023-06-10T00:20:57;9.43;;;4.97;;
3718;SDS011;1875;52.492;6.860;2023-06-10T00:23:30;8.00;;;4.67;;
3718;SDS011;1875;52.492;6.860;2023-06-10T00:26:06;11.00;;;4.53;;
3718;SDS011;1875;52.492;6.860;2023-06-10T00:28:33;11.80;;;4.77;;
3718;SDS011;1875;52.492;6.860;2023-06-10T00:31:02;10.90;;;4.80;;
3718;SDS011;1875;52.492;6.860;2023-06-10T00:33:30;8.27;;;4.10;;
3718;SDS011;1875;52.492;6.860;2023-06-10T00:35:58;12.37;;;4.23;;
3718;SDS011;1875;52.492;6.860;2023-06-10T00:38:26;6.53;;;4.20;;
3718;SDS011;1875;52.492;6.860;2023-06-10T00:40:53;7.27;;;4.93;;
3718;SDS011;1875;52.492;6.860;2023-06-10T00:43:22;9.30;;;4.40;;
3718;SDS011;1875;52.492;6.860;2023-06-10T00:45:50;9.10;;;4.50;;
3718;SDS011;1875;52.492;6.860;2023-06-10T00:48:18;7.97;;;4.33;;
3718;SDS011;1875;52.492;6.860;2023-06-10T00:50:46;9.73;;;4.03;;
3718;SDS011;1875;52.492;6.860;2023-06-10T00:53:14;6.83;;;4.27;;
3718;SDS011;1875;52.492;6.860;2023-06-10T00:55:42;8.67;;;4.30;;
3718;SDS011;1875;52.492;6.860;2023-06-10T00:58:10;9.70;;;5.17;;
3718;SDS011;1875;52.492;6.860;2023-06-10T01:00:39;10.27;;;4.80;;
3718;SDS011;1875;52.492;6.860;2023-06-10T01:03:07;10.33;;;4.87;;
3718;SDS011;1875;52.492;6.860;2023-06-10T01:05:35;9.07;;;4.97;;
3718;SDS011;1875;52.492;6.860;2023-06-10T01:08:03;8.00;;;4.30;;
3718;SDS011;1875;52.492;6.860;2023-06-10T01:10:38;8.80;;;4.77;;
3718;SDS011;1875;52.492;6.860;2023-06-10T01:13:09;16.50;;;5.10;;
3718;SDS011;1875;52.492;6.860;2023-06-10T01:15:40;14.73;;;5.00;;
3718;SDS011;1875;52.492;6.860;2023-06-10T01:18:08;9.73;;;4.80;;
3718;SDS011;1875;52.492;6.860;2023-06-10T01:20:42;8.77;;;4.63;;
3718;SDS011;1875;52.492;6.860;2023-06-10T01:23:11;7.33;;;4.90;;
3718;SDS011;1875;52.492;6.860;2023-06-10T01:25:41;10.67;;;5.63;;
3718;SDS011;1875;52.492;6.860;2023-06-10T01:28:12;7.70;;;4.20;;
3718;SDS011;1875;52.492;6.860;2023-06-10T01:30:43;8.73;;;4.50;;
3718;SDS011;1875;52.492;6.860;2023-06-10T01:33:16;9.33;;;4.80;;
3718;SDS011;1875;52.492;6.860;2023-06-10T04:37:26;12.20;;;5.37;;
3718;SDS011;1875;52.492;6.860;2023-06-10T04:39:55;11.40;;;5.30;;
3718;SDS011;1875;52.492;6.860;2023-06-10T04:42:23;11.77;;;5.63;;
3718;SDS011;1875;52.492;6.860;2023-06-10T04:44:51;13.50;;;6.30;;
3718;SDS011;1875;52.492;6.860;2023-06-10T04:47:18;10.07;;;5.57;;
3718;SDS011;1875;52.492;6.860;2023-06-10T04:49:46;8.17;;;4.97;;
3718;SDS011;1875;52.492;6.860;2023-06-10T04:52:14;14.40;;;6.33;;
3718;SDS011;1875;52.492;6.860;2023-06-10T04:54:46;9.63;;;5.10;;
3718;SDS011;1875;52.492;6.860;2023-06-10T04:57:14;8.57;;;5.63;;
3718;SDS011;1875;52.492;6.860;2023-06-10T04:59:42;9.43;;;5.50;;
3718;SDS011;1875;52.492;6.860;2023-06-10T05:02:10;11.53;;;5.33;;
3718;SDS011;1875;52.492;6.860;2023-06-10T05:04:38;10.43;;;5.33;;
3718;SDS011;1875;52.492;6.860;2023-06-10T05:07:06;11.67;;;5.03;;
3718;SDS011;1875;52.492;6.860;2023-06-10T05:09:33;14.00;;;5.73;;
3718;SDS011;1875;52.492;6.860;2023-06-10T05:12:03;9.93;;;5.77;;
3718;SDS011;1875;52.492;6.860;2023-06-10T05:14:32;16.53;;;5.50;;
3718;SDS011;1875;52.492;6.860;2023-06-10T05:17:00;8.07;;;5.97;;
3718;SDS011;1875;52.492;6.860;2023-06-10T05:19:28;10.30;;;5.50;;
3718;SDS011;1875;52.492;6.860;2023-06-10T05:21:55;11.73;;;5.67;;
3718;SDS011;1875;52.492;6.860;2023-06-10T05:24:24;10.27;;;5.27;;
3718;SDS011;1875;52.492;6.860;2023-06-10T05:26:51;9.60;;;4.90;;
3718;SDS011;1875;52.492;6.860;2023-06-10T05:29:20;9.97;;;5.40;;
3718;SDS011;1875;52.492;6.860;2023-06-10T05:31:48;9.90;;;5.23;;
3718;SDS011;1875;52.492;6.860;2023-06-10T05:34:16;10.77;;;6.33;;
3718;SDS011;1875;52.492;6.860;2023-06-10T05:36:44;11.77;;;5.80;;
3718;SDS011;1875;52.492;6.860;2023-06-10T05:39:12;10.17;;;5.10;;
3718;SDS011;1875;52.492;6.860;2023-06-10T05:41:39;11.60;;;6.10;;
3718;SDS011;1875;52.492;6.860;2023-06-10T05:44:07;10.93;;;5.73;;
3718;SDS011;1875;52.492;6.860;2023-06-10T05:46:40;8.70;;;5.63;;
3718;SDS011;1875;52.492;6.860;2023-06-10T05:49:09;9.83;;;5.60;;
3718;SDS011;1875;52.492;6.860;2023-06-10T05:51:37;9.67;;;5.50;;
3718;SDS011;1875;52.492;6.860;2023-06-10T05:54:05;11.60;;;5.80;;
3718;SDS011;1875;52.492;6.860;2023-06-10T05:56:33;12.17;;;5.93;;
3718;SDS011;1875;52.492;6.860;2023-06-10T05:59:01;8.47;;;5.30;;
3718;SDS011;1875;52.492;6.860;2023-06-10T06:01:29;13.67;;;5.47;;
3718;SDS011;1875;52.492;6.860;2023-06-10T06:03:58;9.50;;;5.63;;
3718;SDS011;1875;52.492;6.860;2023-06-10T06:06:26;9.90;;;5.57;;
3718;SDS011;1875;52.492;6.860;2023-06-10T06:08:53;14.37;;;5.83;;
3718;SDS011;1875;52.492;6.860;2023-06-10T06:11:21;8.40;;;5.33;;
3718;SDS011;1875;52.492;6.860;2023-06-10T06:13:49;11.10;;;5.07;;
3718;SDS011;1875;52.492;6.860;2023-06-10T06:16:19;12.93;;;5.57;;
3718;SDS011;1875;52.492;6.860;2023-06-10T06:18:46;8.67;;;5.03;;
3718;SDS011;1875;52.492;6.860;2023-06-10T06:21:15;11.23;;;5.37;;
3718;SDS011;1875;52.492;6.860;2023-06-10T06:23:43;9.73;;;5.20;;
3718;SDS011;1875;52.492;6.860;2023-06-10T06:26:11;13.07;;;5.70;;
3718;SDS011;1875;52.492;6.860;2023-06-10T06:28:39;8.63;;;4.87;;
3718;SDS011;1875;52.492;6.860;2023-06-10T06:31:07;10.03;;;5.40;;
3718;SDS011;1875;52.492;6.860;2023-06-10T06:33:35;12.50;;;5.90;;
3718;SDS011;1875;52.492;6.860;2023-06-10T06:36:02;11.13;;;5.57;;
3718;SDS011;1875;52.492;6.860;2023-06-10T06:38:32;10.20;;;5.87;;
3718;SDS011;1875;52.492;6.860;2023-06-10T06:40:59;9.80;;;4.77;;
3718;SDS011;1875;52.492;6.860;2023-06-10T06:43:29;10.13;;;5.17;;
3718;SDS011;1875;52.492;6.860;2023-06-10T06:45:57;8.10;;;4.83;;
3718;SDS011;1875;52.492;6.860;2023-06-10T06:48:25;10.27;;;5.60;;
3718;SDS011;1875;52.492;6.860;2023-06-10T06:50:53;14.77;;;5.80;;
3718;SDS011;1875;52.492;6.860;2023-06-10T06:53:22;8.97;;;4.63;;
3718;SDS011;1875;52.492;6.860;2023-06-10T06:55:51;12.17;;;5.03;;
3718;SDS011;1875;52.492;6.860;2023-06-10T06:58:20;9.30;;;5.27;;
3718;SDS011;1875;52.492;6.860;2023-06-10T07:00:48;10.30;;;5.47;;
3718;SDS011;1875;52.492;6.860;2023-06-10T07:03:16;11.10;;;4.53;;
3718;SDS011;1875;52.492;6.860;2023-06-10T07:05:44;10.63;;;5.23;;
3718;SDS011;1875;52.492;6.860;2023-06-10T07:08:12;11.33;;;4.60;;
3718;SDS011;1875;52.492;6.860;2023-06-10T07:10:39;9.77;;;4.87;;
3718;SDS011;1875;52.492;6.860;2023-06-10T07:13:08;14.47;;;5.07;;
3718;SDS011;1875;52.492;6.860;2023-06-10T07:15:40;10.93;;;5.07;;
3718;SDS011;1875;52.492;6.860;2023-06-10T07:18:08;9.83;;;5.10;;
3718;SDS011;1875;52.492;6.860;2023-06-10T07:20:35;10.03;;;5.17;;
3718;SDS011;1875;52.492;6.860;2023-06-10T07:23:03;9.20;;;5.00;;
3718;SDS011;1875;52.492;6.860;2023-06-10T07:25:31;12.30;;;5.30;;
3718;SDS011;1875;52.492;6.860;2023-06-10T07:27:59;9.80;;;5.13;;
3718;SDS011;1875;52.492;6.860;2023-06-10T07:30:28;16.20;;;6.47;;
3718;SDS011;1875;52.492;6.860;2023-06-10T07:32:56;7.57;;;4.63;;
3718;SDS011;1875;52.492;6.860;2023-06-10T07:35:24;8.00;;;4.73;;
3718;SDS011;1875;52.492;6.860;2023-06-10T07:37:51;9.00;;;4.70;;
3718;SDS011;1875;52.492;6.860;2023-06-10T07:40:19;9.13;;;4.60;;
3718;SDS011;1875;52.492;6.860;2023-06-10T07:42:47;7.97;;;5.13;;
3718;SDS011;1875;52.492;6.860;2023-06-10T07:45:15;7.77;;;4.37;;
3718;SDS011;1875;52.492;6.860;2023-06-10T07:47:44;12.30;;;5.33;;
3718;SDS011;1875;52.492;6.860;2023-06-10T07:50:12;7.93;;;4.60;;
3718;SDS011;1875;52.492;6.860;2023-06-10T07:52:39;8.70;;;5.10;;
3718;SDS011;1875;52.492;6.860;2023-06-10T07:55:07;13.20;;;4.97;;
3718;SDS011;1875;52.492;6.860;2023-06-10T07:57:35;10.67;;;4.70;;
3718;SDS011;1875;52.492;6.860;2023-06-10T08:00:05;12.33;;;5.00;;
3718;SDS011;1875;52.492;6.860;2023-06-10T08:02:34;11.30;;;5.10;;
3718;SDS011;1875;52.492;6.860;2023-06-10T08:05:04;12.00;;;4.47;;
3718;SDS011;1875;52.492;6.860;2023-06-10T08:07:32;11.50;;;4.40;;
3718;SDS011;1875;52.492;6.860;2023-06-10T08:10:00;10.20;;;4.50;;
3718;SDS011;1875;52.492;6.860;2023-06-10T08:12:28;6.73;;;4.40;;
3718;SDS011;1875;52.492;6.860;2023-06-10T08:14:56;11.83;;;4.43;;
3718;SDS011;1875;52.492;6.860;2023-06-10T08:17:23;9.37;;;4.70;;
3718;SDS011;1875;52.492;6.860;2023-06-10T08:19:51;13.83;;;4.50;;
3718;SDS011;1875;52.492;6.860;2023-06-10T08:22:20;10.67;;;4.47;;
3718;SDS011;1875;52.492;6.860;2023-06-10T08:24:48;7.33;;;4.13;;
3718;SDS011;1875;52.492;6.860;2023-06-10T08:27:17;7.53;;;4.23;;
3718;SDS011;1875;52.492;6.860;2023-06-10T08:29:45;10.97;;;4.17;;
3718;SDS011;1875;52.492;6.860;2023-06-10T08:32:12;8.90;;;3.97;;
3718;SDS011;1875;52.492;6.860;2023-06-10T08:34:40;11.87;;;4.27;;
3718;SDS011;1875;52.492;6.860;2023-06-10T08:37:08;7.53;;;3.40;;
3718;SDS011;1875;52.492;6.860;2023-06-10T08:39:37;9.07;;;4.10;;
3718;SDS011;1875;52.492;6.860;2023-06-10T08:42:09;7.33;;;4.03;;
3718;SDS011;1875;52.492;6.860;2023-06-10T08:44:39;7.77;;;3.83;;
3718;SDS011;1875;52.492;6.860;2023-06-10T08:47:10;7.73;;;3.77;;
3718;SDS011;1875;52.492;6.860;2023-06-10T08:49:43;10.73;;;4.43;;
3718;SDS011;1875;52.492;6.860;2023-06-10T08:52:14;6.57;;;3.47;;
3718;SDS011;1875;52.492;6.860;2023-06-10T08:54:46;9.43;;;4.50;;
3718;SDS011;1875;52.492;6.860;2023-06-10T08:57:16;9.27;;;3.53;;
3718;SDS011;1875;52.492;6.860;2023-06-10T08:59:46;11.40;;;3.83;;
3718;SDS011;1875;52.492;6.860;2023-06-10T09:02:15;7.73;;;3.70;;
3718;SDS011;1875;52.492;6.860;2023-06-10T09:04:46;11.53;;;3.87;;
3718;SDS011;1875;52.492;6.860;2023-06-10T09:07:14;9.23;;;3.77;;
3718;SDS011;1875;52.492;6.860;2023-06-10T09:09:42;7.37;;;3.90;;
3718;SDS011;1875;52.492;6.860;2023-06-10T09:12:13;9.83;;;4.03;;
3718;SDS011;1875;52.492;6.860;2023-06-10T09:14:41;8.33;;;4.03;;
3718;SDS011;1875;52.492;6.860;2023-06-10T09:17:09;9.03;;;3.67;;
3718;SDS011;1875;52.492;6.860;2023-06-10T09:19:39;9.30;;;3.80;;
3718;SDS011;1875;52.492;6.860;2023-06-10T09:22:07;6.13;;;3.63;;
3718;SDS011;1875;52.492;6.860;2023-06-10T09:24:35;8.50;;;4.00;;
3718;SDS011;1875;52.492;6.860;2023-06-10T09:27:03;9.70;;;3.60;;
3718;SDS011;1875;52.492;6.860;2023-06-10T09:29:36;10.87;;;4.07;;
3718;SDS011;1875;52.492;6.860;2023-06-10T09:32:13;9.07;;;4.20;;
3718;SDS011;1875;52.492;6.860;2023-06-10T09:34:43;8.13;;;4.10;;
3718;SDS011;1875;52.492;6.860;2023-06-10T09:37:12;8.00;;;4.00;;
3718;SDS011;1875;52.492;6.860;2023-06-10T09:39:40;8.43;;;4.23;;
3718;SDS011;1875;52.492;6.860;2023-06-10T09:42:16;10.57;;;4.13;;
3718;SDS011;1875;52.492;6.860;2023-06-10T09:44:50;9.70;;;4.53;;
3718;SDS011;1875;52.492;6.860;2023-06-10T09:47:21;11.37;;;4.30;;
3718;SDS011;1875;52.492;6.860;2023-06-10T09:49:49;7.77;;;3.70;;
3718;SDS011;1875;52.492;6.860;2023-06-10T09:52:21;6.83;;;3.57;;
3718;SDS011;1875;52.492;6.860;2023-06-10T09:54:49;12.23;;;4.60;;
3718;SDS011;1875;52.492;6.860;2023-06-10T09:57:18;8.00;;;4.40;;
3718;SDS011;1875;52.492;6.860;2023-06-10T09:59:46;7.97;;;4.20;;
3718;SDS011;1875;52.492;6.860;2023-06-10T10:02:16;7.67;;;4.00;;
3718;SDS011;1875;52.492;6.860;2023-06-10T10:04:44;8.23;;;4.10;;
3718;SDS011;1875;52.492;6.860;2023-06-10T10:07:12;6.83;;;4.30;;
3718;SDS011;1875;52.492;6.860;2023-06-10T10:09:40;9.53;;;3.23;;
3718;SDS011;1875;52.492;6.860;2023-06-10T10:12:10;10.20;;;4.43;;
3718;SDS011;1875;52.492;6.860;2023-06-10T10:14:38;9.73;;;4.63;;
3718;SDS011;1875;52.492;6.860;2023-06-10T10:17:07;12.10;;;4.33;;
3718;SDS011;1875;52.492;6.860;2023-06-10T10:19:46;8.40;;;4.03;;
3718;SDS011;1875;52.492;6.860;2023-06-10T10:22:16;9.90;;;4.43;;
3718;SDS011;1875;52.492;6.860;2023-06-10T10:24:49;9.87;;;3.70;;
3718;SDS011;1875;52.492;6.860;2023-06-10T10:27:18;9.30;;;4.27;;
3718;SDS011;1875;52.492;6.860;2023-06-10T10:29:50;9.30;;;4.50;;
3718;SDS011;1875;52.492;6.860;2023-06-10T10:32:20;6.70;;;4.00;;
3718;SDS011;1875;52.492;6.860;2023-06-10T10:34:56;10.70;;;4.90;;
3718;SDS011;1875;52.492;6.860;2023-06-10T10:37:26;8.67;;;4.37;;
3718;SDS011;1875;52.492;6.860;2023-06-10T10:39:54;7.73;;;4.40;;
3718;SDS011;1875;52.492;6.860;2023-06-10T10:42:23;9.53;;;3.87;;
3718;SDS011;1875;52.492;6.860;2023-06-10T10:44:51;7.10;;;3.97;;
3718;SDS011;1875;52.492;6.860;2023-06-10T10:47:20;8.27;;;4.33;;
3718;SDS011;1875;52.492;6.860;2023-06-10T10:49:50;6.03;;;3.93;;
3718;SDS011;1875;52.492;6.860;2023-06-10T10:52:20;6.50;;;4.30;;
3718;SDS011;1875;52.492;6.860;2023-06-10T10:54:48;9.20;;;4.03;;
3718;SDS011;1875;52.492;6.860;2023-06-10T10:57:16;7.73;;;4.17;;
3718;SDS011;1875;52.492;6.860;2023-06-10T10:59:46;6.50;;;4.17;;
3718;SDS011;1875;52.492;6.860;2023-06-10T11:02:34;7.83;;;4.07;;
3718;SDS011;1875;52.492;6.860;2023-06-10T11:05:05;6.33;;;3.90;;
3718;SDS011;1875;52.492;6.860;2023-06-10T11:07:36;6.17;;;3.80;;
3718;SDS011;1875;52.492;6.860;2023-06-10T11:10:08;7.70;;;4.20;;
3718;SDS011;1875;52.492;6.860;2023-06-10T11:12:49;4.60;;;3.70;;
3718;SDS011;1875;52.492;6.860;2023-06-10T11:15:19;10.10;;;4.30;;
3718;SDS011;1875;52.492;6.860;2023-06-10T11:18:06;6.13;;;3.27;;
3718;SDS011;1875;52.492;6.860;2023-06-10T11:20:54;8.50;;;4.00;;
3718;SDS011;1875;52.492;6.860;2023-06-10T11:23:32;9.03;;;3.80;;
3718;SDS011;1875;52.492;6.860;2023-06-10T11:26:10;7.23;;;3.93;;
3718;SDS011;1875;52.492;6.860;2023-06-10T11:28:39;7.23;;;3.83;;
3718;SDS011;1875;52.492;6.860;2023-06-10T11:31:08;6.63;;;3.73;;
3718;SDS011;1875;52.492;6.860;2023-06-10T11:33:37;6.63;;;3.63;;
3718;SDS011;1875;52.492;6.860;2023-06-10T11:36:06;6.33;;;3.90;;
3718;SDS011;1875;52.492;6.860;2023-06-10T11:38:36;6.77;;;3.77;;
3718;SDS011;1875;52.492;6.860;2023-06-10T11:41:04;9.83;;;3.63;;
3718;SDS011;1875;52.492;6.860;2023-06-10T11:43:31;7.27;;;3.87;;
3718;SDS011;1875;52.492;6.860;2023-06-10T11:45:59;5.30;;;3.53;;
3718;SDS011;1875;52.492;6.860;2023-06-10T11:48:28;9.13;;;3.83;;
3718;SDS011;1875;52.492;6.860;2023-06-10T11:50:56;5.90;;;3.67;;
3718;SDS011;1875;52.492;6.860;2023-06-10T11:53:24;4.57;;;3.00;;
3718;SDS011;1875;52.492;6.860;2023-06-10T11:55:53;11.27;;;3.50;;
3718;SDS011;1875;52.492;6.860;2023-06-10T11:58:22;7.50;;;3.60;;
3718;SDS011;1875;52.492;6.860;2023-06-10T12:00:50;11.03;;;3.93;;
3718;SDS011;1875;52.492;6.860;2023-06-10T12:03:19;6.77;;;3.07;;
3718;SDS011;1875;52.492;6.860;2023-06-10T12:05:55;11.73;;;4.27;;
3718;SDS011;1875;52.492;6.860;2023-06-10T12:08:24;7.70;;;3.43;;
3718;SDS011;1875;52.492;6.860;2023-06-10T12:10:52;6.30;;;3.10;;
3718;SDS011;1875;52.492;6.860;2023-06-10T12:13:21;4.80;;;3.23;;
3718;SDS011;1875;52.492;6.860;2023-06-10T12:15:50;5.20;;;3.20;;
3718;SDS011;1875;52.492;6.860;2023-06-10T12:18:18;5.37;;;3.20;;
3718;SDS011;1875;52.492;6.860;2023-06-10T12:20:46;7.53;;;3.90;;
3718;SDS011;1875;52.492;6.860;2023-06-10T12:23:14;5.70;;;3.90;;
3718;SDS011;1875;52.492;6.860;2023-06-10T12:25:49;8.40;;;3.80;;
3718;SDS011;1875;52.492;6.860;2023-06-10T12:28:21;8.23;;;3.77;;
3718;SDS011;1875;52.492;6.860;2023-06-10T12:30:50;8.20;;;3.57;;
3718;SDS011;1875;52.492;6.860;2023-06-10T12:33:18;6.80;;;3.70;;
3718;SDS011;1875;52.492;6.860;2023-06-10T12:35:47;6.33;;;3.50;;
3718;SDS011;1875;52.492;6.860;2023-06-10T12:38:20;5.53;;;3.00;;
3718;SDS011;1875;52.492;6.860;2023-06-10T12:40:48;7.70;;;3.37;;
3718;SDS011;1875;52.492;6.860;2023-06-10T12:43:19;6.80;;;3.90;;
3718;SDS011;1875;52.492;6.860;2023-06-10T12:45:48;5.70;;;3.63;;
3718;SDS011;1875;52.492;6.860;2023-06-10T12:48:17;4.50;;;3.60;;
3718;SDS011;1875;52.492;6.860;2023-06-10T12:50:50;6.63;;;3.20;;
3718;SDS011;1875;52.492;6.860;2023-06-10T12:53:19;5.50;;;3.30;;
3718;SDS011;1875;52.492;6.860;2023-06-10T12:55:47;9.57;;;3.77;;
3718;SDS011;1875;52.492;6.860;2023-06-10T12:58:15;5.60;;;3.43;;
3718;SDS011;1875;52.492;6.860;2023-06-10T13:00:43;5.20;;;4.00;;
3718;SDS011;1875;52.492;6.860;2023-06-10T13:03:12;5.83;;;3.63;;
3718;SDS011;1875;52.492;6.860;2023-06-10T13:05:40;5.60;;;3.23;;
3718;SDS011;1875;52.492;6.860;2023-06-10T13:08:09;5.63;;;3.60;;
3718;SDS011;1875;52.492;6.860;2023-06-10T13:10:37;6.00;;;3.37;;
3718;SDS011;1875;52.492;6.860;2023-06-10T13:13:05;6.60;;;3.50;;
3718;SDS011;1875;52.492;6.860;2023-06-10T13:15:34;5.13;;;3.70;;
3718;SDS011;1875;52.492;6.860;2023-06-10T13:18:08;4.27;;;3.03;;
3718;SDS011;1875;52.492;6.860;2023-06-10T13:20:37;5.43;;;3.70;;
3718;SDS011;1875;52.492;6.860;2023-06-10T13:23:05;5.57;;;3.50;;
3718;SDS011;1875;52.492;6.860;2023-06-10T13:25:33;5.20;;;3.30;;
3718;SDS011;1875;52.492;6.860;2023-06-10T13:28:01;4.70;;;3.57;;
3718;SDS011;1875;52.492;6.860;2023-06-10T13:30:28;6.03;;;3.70;;
3718;SDS011;1875;52.492;6.860;2023-06-10T13:32:57;4.30;;;3.07;;
3718;SDS011;1875;52.492;6.860;2023-06-10T13:35:25;7.23;;;3.30;;
3718;SDS011;1875;52.492;6.860;2023-06-10T13:37:54;5.37;;;3.00;;
3718;SDS011;1875;52.492;6.860;2023-06-10T13:40:22;6.40;;;3.30;;
3718;SDS011;1875;52.492;6.860;2023-06-10T13:42:49;3.93;;;3.07;;
3718;SDS011;1875;52.492;6.860;2023-06-10T13:45:18;7.47;;;3.50;;
3718;SDS011;1875;52.492;6.860;2023-06-10T13:47:46;6.00;;;3.50;;
3718;SDS011;1875;52.492;6.860;2023-06-10T13:50:14;3.57;;;3.13;;
3718;SDS011;1875;52.492;6.860;2023-06-10T13:52:42;5.70;;;3.07;;
3718;SDS011;1875;52.492;6.860;2023-06-10T13:55:11;12.93;;;3.97;;
3718;SDS011;1875;52.492;6.860;2023-06-10T13:57:39;5.03;;;3.47;;
3718;SDS011;1875;52.492;6.860;2023-06-10T14:00:07;6.30;;;3.80;;
3718;SDS011;1875;52.492;6.860;2023-06-10T14:02:37;8.10;;;3.03;;
3718;SDS011;1875;52.492;6.860;2023-06-10T14:05:05;5.53;;;3.60;;
3718;SDS011;1875;52.492;6.860;2023-06-10T14:07:34;7.40;;;3.93;;
3718;SDS011;1875;52.492;6.860;2023-06-10T14:10:03;3.77;;;2.87;;
3718;SDS011;1875;52.492;6.860;2023-06-10T14:12:33;4.40;;;3.03;;
3718;SDS011;1875;52.492;6.860;2023-06-10T14:15:01;12.57;;;3.47;;
3718;SDS011;1875;52.492;6.860;2023-06-10T14:17:29;4.63;;;3.37;;
3718;SDS011;1875;52.492;6.860;2023-06-10T14:19:57;6.17;;;4.00;;
3718;SDS011;1875;52.492;6.860;2023-06-10T14:22:24;4.50;;;2.80;;
3718;SDS011;1875;52.492;6.860;2023-06-10T14:24:52;6.93;;;3.57;;
3718;SDS011;1875;52.492;6.860;2023-06-10T14:27:20;6.63;;;4.07;;
3718;SDS011;1875;52.492;6.860;2023-06-10T14:29:49;6.93;;;4.10;;
3718;SDS011;1875;52.492;6.860;2023-06-10T14:32:17;4.90;;;3.60;;
3718;SDS011;1875;52.492;6.860;2023-06-10T14:34:45;4.23;;;3.03;;
3718;SDS011;1875;52.492;6.860;2023-06-10T14:37:13;4.43;;;3.00;;
3718;SDS011;1875;52.492;6.860;2023-06-10T14:39:41;7.60;;;3.40;;
3718;SDS011;1875;52.492;6.860;2023-06-10T14:42:09;5.50;;;3.20;;
3718;SDS011;1875;52.492;6.860;2023-06-10T14:44:36;5.50;;;3.20;;
3718;SDS011;1875;52.492;6.860;2023-06-10T14:47:06;11.60;;;3.63;;
3718;SDS011;1875;52.492;6.860;2023-06-10T14:49:34;8.60;;;3.37;;
3718;SDS011;1875;52.492;6.860;2023-06-10T14:52:01;6.83;;;3.50;;
3718;SDS011;1875;52.492;6.860;2023-06-10T14:54:30;6.30;;;3.77;;
3718;SDS011;1875;52.492;6.860;2023-06-10T14:56:57;5.40;;;3.60;;
3718;SDS011;1875;52.492;6.860;2023-06-10T14:59:25;5.83;;;3.40;;
3718;SDS011;1875;52.492;6.860;2023-06-10T15:01:53;4.60;;;3.40;;
3718;SDS011;1875;52.492;6.860;2023-06-10T15:04:24;4.53;;;3.50;;
3718;SDS011;1875;52.492;6.860;2023-06-10T15:06:51;5.37;;;3.47;;
3718;SDS011;1875;52.492;6.860;2023-06-10T15:09:20;3.90;;;2.80;;
3718;SDS011;1875;52.492;6.860;2023-06-10T15:11:48;4.33;;;3.77;;
3718;SDS011;1875;52.492;6.860;2023-06-10T15:14:16;10.73;;;4.27;;
3718;SDS011;1875;52.492;6.860;2023-06-10T15:16:47;6.47;;;3.80;;
3718;SDS011;1875;52.492;6.860;2023-06-10T15:19:14;8.50;;;4.20;;
3718;SDS011;1875;52.492;6.860;2023-06-10T15:21:44;7.80;;;4.00;;
3718;SDS011;1875;52.492;6.860;2023-06-10T15:24:11;6.50;;;3.50;;
3718;SDS011;1875;52.492;6.860;2023-06-10T15:26:39;5.60;;;3.60;;
3718;SDS011;1875;52.492;6.860;2023-06-10T15:29:07;6.10;;;3.90;;
3718;SDS011;1875;52.492;6.860;2023-06-10T15:31:35;6.60;;;3.53;;
3718;SDS011;1875;52.492;6.860;2023-06-10T15:34:03;8.60;;;3.97;;
3718;SDS011;1875;52.492;6.860;2023-06-10T15:36:33;7.03;;;3.80;;
3718;SDS011;1875;52.492;6.860;2023-06-10T15:39:04;8.07;;;3.60;;
3718;SDS011;1875;52.492;6.860;2023-06-10T15:41:33;5.93;;;3.73;;
3718;SDS011;1875;52.492;6.860;2023-06-10T15:44:01;5.13;;;3.60;;
3718;SDS011;1875;52.492;6.860;2023-06-10T15:46:29;7.10;;;4.07;;
3718;SDS011;1875;52.492;6.860;2023-06-10T15:48:57;7.47;;;3.97;;
3718;SDS011;1875;52.492;6.860;2023-06-10T15:51:25;8.40;;;4.20;;
3718;SDS011;1875;52.492;6.860;2023-06-10T15:53:53;10.07;;;3.90;;
3718;SDS011;1875;52.492;6.860;2023-06-10T15:56:22;7.60;;;3.73;;
3718;SDS011;1875;52.492;6.860;2023-06-10T15:58:52;6.07;;;3.90;;
3718;SDS011;1875;52.492;6.860;2023-06-10T16:01:19;6.83;;;4.10;;
3718;SDS011;1875;52.492;6.860;2023-06-10T16:03:47;9.10;;;4.20;;
3718;SDS011;1875;52.492;6.860;2023-06-10T16:06:15;6.63;;;3.83;;
3718;SDS011;1875;52.492;6.860;2023-06-10T16:08:43;3.93;;;3.30;;
3718;SDS011;1875;52.492;6.860;2023-06-10T16:11:12;5.87;;;3.40;;
3718;SDS011;1875;52.492;6.860;2023-06-10T16:13:41;6.13;;;3.60;;
3718;SDS011;1875;52.492;6.860;2023-06-10T16:16:09;5.83;;;3.90;;
3718;SDS011;1875;52.492;6.860;2023-06-10T16:18:36;4.93;;;3.87;;
3718;SDS011;1875;52.492;6.860;2023-06-10T16:21:04;4.80;;;3.80;;
3718;SDS011;1875;52.492;6.860;2023-06-10T16:23:33;4.70;;;4.13;;
3718;SDS011;1875;52.492;6.860;2023-06-10T16:26:15;6.10;;;4.00;;
3718;SDS011;1875;52.492;6.860;2023-06-10T16:28:45;10.00;;;3.60;;
3718;SDS011;1875;52.492;6.860;2023-06-10T16:31:25;8.77;;;4.40;;
3718;SDS011;1875;52.492;6.860;2023-06-10T16:34:05;9.10;;;4.43;;
3718;SDS011;1875;52.492;6.860;2023-06-10T16:36:36;5.70;;;3.60;;
3718;SDS011;1875;52.492;6.860;2023-06-10T16:39:04;5.97;;;3.90;;
3718;SDS011;1875;52.492;6.860;2023-06-10T16:41:58;6.33;;;4.10;;
3718;SDS011;1875;52.492;6.860;2023-06-10T16:44:32;4.40;;;3.50;;
3718;SDS011;1875;52.492;6.860;2023-06-10T16:47:00;6.00;;;3.50;;
3718;SDS011;1875;52.492;6.860;2023-06-10T16:49:30;8.47;;;3.67;;
3718;SDS011;1875;52.492;6.860;2023-06-10T16:52:15;4.37;;;3.50;;
3718;SDS011;1875;52.492;6.860;2023-06-10T16:54:46;4.87;;;3.63;;
3718;SDS011;1875;52.492;6.860;2023-06-10T16:57:15;6.50;;;4.10;;
3718;SDS011;1875;52.492;6.860;2023-06-10T16:59:50;5.90;;;3.97;;
3718;SDS011;1875;52.492;6.860;2023-06-10T17:02:23;6.20;;;4.07;;
3718;SDS011;1875;52.492;6.860;2023-06-10T17:07:54;6.97;;;4.23;;
3718;SDS011;1875;52.492;6.860;2023-06-10T17:10:40;5.00;;;4.27;;
3718;SDS011;1875;52.492;6.860;2023-06-10T17:13:17;7.43;;;4.97;;
3718;SDS011;1875;52.492;6.860;2023-06-10T17:16:09;7.00;;;4.17;;
3718;SDS011;1875;52.492;6.860;2023-06-10T17:18:39;8.60;;;4.73;;
3718;SDS011;1875;52.492;6.860;2023-06-10T17:21:20;4.80;;;4.27;;
3718;SDS011;1875;52.492;6.860;2023-06-10T17:24:16;10.67;;;5.27;;
3718;SDS011;1875;52.492;6.860;2023-06-10T17:26:47;9.83;;;4.57;;
3718;SDS011;1875;52.492;6.860;2023-06-10T17:29:14;7.23;;;4.90;;
3718;SDS011;1875;52.492;6.860;2023-06-10T17:31:44;7.57;;;5.30;;
3718;SDS011;1875;52.492;6.860;2023-06-10T17:34:12;7.70;;;4.10;;
3718;SDS011;1875;52.492;6.860;2023-06-10T17:36:39;8.20;;;4.97;;
3718;SDS011;1875;52.492;6.860;2023-06-10T17:39:07;6.63;;;4.50;;
3718;SDS011;1875;52.492;6.860;2023-06-10T17:41:35;7.50;;;4.50;;
3718;SDS011;1875;52.492;6.860;2023-06-10T17:44:03;6.63;;;3.60;;
3718;SDS011;1875;52.492;6.860;2023-06-10T17:46:32;4.43;;;3.47;;
3718;SDS011;1875;52.492;6.860;2023-06-10T17:49:01;8.13;;;4.40;;
3718;SDS011;1875;52.492;6.860;2023-06-10T17:51:29;8.37;;;3.97;;
3718;SDS011;1875;52.492;6.860;2023-06-10T17:53:56;5.40;;;4.00;;
3718;SDS011;1875;52.492;6.860;2023-06-10T17:56:24;7.17;;;3.57;;
3718;SDS011;1875;52.492;6.860;2023-06-10T17:58:52;6.70;;;4.33;;
3718;SDS011;1875;52.492;6.860;2023-06-10T18:01:20;8.20;;;3.90;;
3718;SDS011;1875;52.492;6.860;2023-06-10T18:03:48;7.17;;;3.73;;
3718;SDS011;1875;52.492;6.860;2023-06-10T18:06:23;6.43;;;3.67;;
3718;SDS011;1875;52.492;6.860;2023-06-10T18:08:52;9.70;;;4.53;;
3718;SDS011;1875;52.492;6.860;2023-06-10T18:11:20;5.43;;;3.63;;
3718;SDS011;1875;52.492;6.860;2023-06-10T18:13:48;7.87;;;4.17;;
3718;SDS011;1875;52.492;6.860;2023-06-10T18:16:16;6.13;;;3.92;;
3718;SDS011;1875;52.492;6.860;2023-06-10T18:18:44;8.80;;;4.10;;
3718;SDS011;1875;52.492;6.860;2023-06-10T18:21:12;8.95;;;3.67;;
3718;SDS011;1875;52.492;6.860;2023-06-10T18:23:41;5.20;;;3.50;;
3718;SDS011;1875;52.492;6.860;2023-06-10T18:26:09;3.97;;;3.47;;
3718;SDS011;1875;52.492;6.860;2023-06-10T18:28:37;7.57;;;3.90;;
3718;SDS011;1875;52.492;6.860;2023-06-10T18:31:05;7.17;;;4.20;;